sensor_id;sensor_type;location;lat;lon;timestamp;P1;durP1;ratioP1;P2;durP2;ratioP2
22778;SDS011;11556;51.194;3.800;2024-03-07T00:02:19;87.35;;;41.88;;
22778;SDS011;11556;51.194;3.800;2024-03-07T00:04:44;88.05;;;43.83;;
22778;SDS011;11556;51.194;3.800;2024-03-07T00:07:10;90.95;;;44.90;;
22778;SDS011;11556;51.194;3.800;2024-03-07T00:09:36;91.32;;;45.17;;
22778;SDS011;11556;51.194;3.800;2024-03-07T00:12:02;89.22;;;43.63;;
22778;SDS011;11556;51.194;3.800;2024-03-07T00:14:29;93.18;;;44.00;;
22778;SDS011;11556;51.194;3.800;2024-03-07T00:16:57;88.57;;;44.17;;
22778;SDS011;11556;51.194;3.800;2024-03-07T00:19:24;87.72;;;44.42;;
22778;SDS011;11556;51.194;3.800;2024-03-07T00:21:55;92.97;;;44.53;;
22778;SDS011;11556;51.194;3.800;2024-03-07T00:24:22;88.30;;;42.72;;
22778;SDS011;11556;51.194;3.800;2024-03-07T00:26:48;85.60;;;43.20;;
22778;SDS011;11556;51.194;3.800;2024-03-07T00:29:17;83.75;;;43.20;;
22778;SDS011;11556;51.194;3.800;2024-03-07T00:31:44;87.13;;;44.25;;
22778;SDS011;11556;51.194;3.800;2024-03-07T00:34:13;81.20;;;41.00;;
22778;SDS011;11556;51.194;3.800;2024-03-07T00:36:41;74.10;;;39.45;;
22778;SDS011;11556;51.194;3.800;2024-03-07T00:39:09;77.55;;;41.03;;
22778;SDS011;11556;51.194;3.800;2024-03-07T00:41:38;70.60;;;38.10;;
22778;SDS011;11556;51.194;3.800;2024-03-07T00:44:05;78.05;;;40.33;;
22778;SDS011;11556;51.194;3.800;2024-03-07T00:46:37;78.18;;;40.50;;
22778;SDS011;11556;51.194;3.800;2024-03-07T00:49:03;77.18;;;41.42;;
22778;SDS011;11556;51.194;3.800;2024-03-07T00:51:30;78.18;;;40.83;;
22778;SDS011;11556;51.194;3.800;2024-03-07T00:53:56;76.75;;;39.65;;
22778;SDS011;11556;51.194;3.800;2024-03-07T00:56:22;79.97;;;41.33;;
22778;SDS011;11556;51.194;3.800;2024-03-07T00:58:48;74.47;;;39.13;;
22778;SDS011;11556;51.194;3.800;2024-03-07T01:01:14;75.82;;;38.70;;
22778;SDS011;11556;51.194;3.800;2024-03-07T01:03:40;80.30;;;41.85;;
22778;SDS011;11556;51.194;3.800;2024-03-07T01:06:06;80.05;;;41.28;;
22778;SDS011;11556;51.194;3.800;2024-03-07T01:08:34;88.63;;;42.47;;
22778;SDS011;11556;51.194;3.800;2024-03-07T01:11:02;86.60;;;42.85;;
22778;SDS011;11556;51.194;3.800;2024-03-07T01:13:38;81.90;;;41.35;;
22778;SDS011;11556;51.194;3.800;2024-03-07T01:16:04;84.60;;;40.85;;
22778;SDS011;11556;51.194;3.800;2024-03-07T01:18:30;91.03;;;43.40;;
22778;SDS011;11556;51.194;3.800;2024-03-07T01:20:58;90.03;;;43.88;;
22778;SDS011;11556;51.194;3.800;2024-03-07T01:23:27;92.28;;;44.55;;
22778;SDS011;11556;51.194;3.800;2024-03-07T01:25:56;93.95;;;43.33;;
22778;SDS011;11556;51.194;3.800;2024-03-07T01:28:23;92.32;;;43.80;;
22778;SDS011;11556;51.194;3.800;2024-03-07T01:30:50;98.70;;;46.42;;
22778;SDS011;11556;51.194;3.800;2024-03-07T01:33:16;101.15;;;45.63;;
22778;SDS011;11556;51.194;3.800;2024-03-07T01:35:42;93.35;;;45.15;;
22778;SDS011;11556;51.194;3.800;2024-03-07T01:38:07;102.47;;;47.03;;
22778;SDS011;11556;51.194;3.800;2024-03-07T01:40:38;107.38;;;46.45;;
22778;SDS011;11556;51.194;3.800;2024-03-07T01:43:07;113.97;;;49.30;;
22778;SDS011;11556;51.194;3.800;2024-03-07T01:45:34;108.13;;;50.05;;
22778;SDS011;11556;51.194;3.800;2024-03-07T01:48:01;105.68;;;48.40;;
22778;SDS011;11556;51.194;3.800;2024-03-07T01:50:29;122.00;;;50.80;;
22778;SDS011;11556;51.194;3.800;2024-03-07T01:52:55;110.80;;;48.13;;
22778;SDS011;11556;51.194;3.800;2024-03-07T01:55:21;106.70;;;49.15;;
22778;SDS011;11556;51.194;3.800;2024-03-07T01:57:47;111.53;;;50.60;;
22778;SDS011;11556;51.194;3.800;2024-03-07T02:00:14;109.47;;;50.25;;
22778;SDS011;11556;51.194;3.800;2024-03-07T02:02:39;115.03;;;50.97;;
22778;SDS011;11556;51.194;3.800;2024-03-07T02:05:05;112.70;;;51.33;;
22778;SDS011;11556;51.194;3.800;2024-03-07T02:07:31;110.85;;;51.03;;
22778;SDS011;11556;51.194;3.800;2024-03-07T02:10:01;119.05;;;49.50;;
22778;SDS011;11556;51.194;3.800;2024-03-07T02:12:28;116.25;;;49.42;;
22778;SDS011;11556;51.194;3.800;2024-03-07T02:14:54;108.47;;;49.03;;
22778;SDS011;11556;51.194;3.800;2024-03-07T02:17:22;120.72;;;49.00;;
22778;SDS011;11556;51.194;3.800;2024-03-07T02:19:51;114.55;;;49.33;;
22778;SDS011;11556;51.194;3.800;2024-03-07T02:22:17;113.95;;;48.60;;
22778;SDS011;11556;51.194;3.800;2024-03-07T02:24:43;109.32;;;49.35;;
22778;SDS011;11556;51.194;3.800;2024-03-07T02:27:10;125.55;;;51.63;;
22778;SDS011;11556;51.194;3.800;2024-03-07T02:29:36;114.45;;;48.60;;
22778;SDS011;11556;51.194;3.800;2024-03-07T02:32:02;123.40;;;51.33;;
22778;SDS011;11556;51.194;3.800;2024-03-07T02:34:28;122.82;;;52.05;;
22778;SDS011;11556;51.194;3.800;2024-03-07T02:36:54;116.75;;;51.28;;
22778;SDS011;11556;51.194;3.800;2024-03-07T02:39:20;119.22;;;51.92;;
22778;SDS011;11556;51.194;3.800;2024-03-07T02:41:49;121.00;;;50.92;;
22778;SDS011;11556;51.194;3.800;2024-03-07T02:44:15;114.53;;;47.90;;
22778;SDS011;11556;51.194;3.800;2024-03-07T02:46:42;109.45;;;48.67;;
22778;SDS011;11556;51.194;3.800;2024-03-07T02:49:07;109.35;;;47.92;;
22778;SDS011;11556;51.194;3.800;2024-03-07T02:51:34;118.05;;;51.40;;
22778;SDS011;11556;51.194;3.800;2024-03-07T02:54:00;120.20;;;50.00;;
22778;SDS011;11556;51.194;3.800;2024-03-07T02:56:26;121.80;;;49.70;;
22778;SDS011;11556;51.194;3.800;2024-03-07T02:58:51;128.05;;;60.85;;
22778;SDS011;11556;51.194;3.800;2024-03-07T03:01:17;133.48;;;65.63;;
22778;SDS011;11556;51.194;3.800;2024-03-07T03:03:43;117.22;;;52.35;;
22778;SDS011;11556;51.194;3.800;2024-03-07T03:06:09;119.15;;;50.80;;
22778;SDS011;11556;51.194;3.800;2024-03-07T03:08:36;119.05;;;48.90;;
22778;SDS011;11556;51.194;3.800;2024-03-07T03:11:02;119.15;;;49.85;;
22778;SDS011;11556;51.194;3.800;2024-03-07T03:13:28;117.28;;;47.88;;
22778;SDS011;11556;51.194;3.800;2024-03-07T03:15:54;114.88;;;48.92;;
22778;SDS011;11556;51.194;3.800;2024-03-07T03:18:23;118.05;;;46.75;;
22778;SDS011;11556;51.194;3.800;2024-03-07T03:20:49;116.70;;;47.03;;
22778;SDS011;11556;51.194;3.800;2024-03-07T03:23:14;114.65;;;46.40;;
22778;SDS011;11556;51.194;3.800;2024-03-07T03:25:40;114.88;;;47.78;;
22778;SDS011;11556;51.194;3.800;2024-03-07T03:28:07;115.35;;;48.13;;
22778;SDS011;11556;51.194;3.800;2024-03-07T03:30:39;129.27;;;52.58;;
22778;SDS011;11556;51.194;3.800;2024-03-07T03:33:06;129.40;;;51.42;;
22778;SDS011;11556;51.194;3.800;2024-03-07T03:35:36;123.68;;;50.45;;
22778;SDS011;11556;51.194;3.800;2024-03-07T03:38:02;133.07;;;50.97;;
22778;SDS011;11556;51.194;3.800;2024-03-07T03:40:28;129.13;;;50.85;;
22778;SDS011;11556;51.194;3.800;2024-03-07T03:42:53;136.25;;;53.42;;
22778;SDS011;11556;51.194;3.800;2024-03-07T03:45:19;126.25;;;50.38;;
22778;SDS011;11556;51.194;3.800;2024-03-07T03:47:45;123.53;;;48.97;;
22778;SDS011;11556;51.194;3.800;2024-03-07T03:50:11;120.03;;;46.38;;
22778;SDS011;11556;51.194;3.800;2024-03-07T03:52:38;114.50;;;47.22;;
22778;SDS011;11556;51.194;3.800;2024-03-07T03:55:05;119.15;;;46.13;;
22778;SDS011;11556;51.194;3.800;2024-03-07T03:57:31;127.07;;;48.95;;
22778;SDS011;11556;51.194;3.800;2024-03-07T03:59:58;130.68;;;49.28;;
22778;SDS011;11556;51.194;3.800;2024-03-07T04:02:24;125.38;;;50.28;;
22778;SDS011;11556;51.194;3.800;2024-03-07T04:04:50;127.32;;;49.70;;
22778;SDS011;11556;51.194;3.800;2024-03-07T04:07:16;125.45;;;47.70;;
22778;SDS011;11556;51.194;3.800;2024-03-07T04:09:42;121.03;;;47.28;;
22778;SDS011;11556;51.194;3.800;2024-03-07T04:12:09;119.97;;;47.60;;
22778;SDS011;11556;51.194;3.800;2024-03-07T04:14:36;120.13;;;47.53;;
22778;SDS011;11556;51.194;3.800;2024-03-07T04:17:04;120.95;;;46.30;;
22778;SDS011;11556;51.194;3.800;2024-03-07T04:19:32;128.95;;;49.05;;
22778;SDS011;11556;51.194;3.800;2024-03-07T04:21:58;128.82;;;49.80;;
22778;SDS011;11556;51.194;3.800;2024-03-07T04:24:24;117.78;;;46.20;;
22778;SDS011;11556;51.194;3.800;2024-03-07T04:26:50;131.20;;;49.75;;
22778;SDS011;11556;51.194;3.800;2024-03-07T04:29:18;136.63;;;50.75;;
22778;SDS011;11556;51.194;3.800;2024-03-07T04:31:44;123.82;;;50.00;;
22778;SDS011;11556;51.194;3.800;2024-03-07T04:34:10;113.78;;;44.72;;
22778;SDS011;11556;51.194;3.800;2024-03-07T04:36:35;110.85;;;42.92;;
22778;SDS011;11556;51.194;3.800;2024-03-07T04:39:01;124.40;;;47.75;;
22778;SDS011;11556;51.194;3.800;2024-03-07T04:41:29;133.55;;;49.03;;
22778;SDS011;11556;51.194;3.800;2024-03-07T04:43:54;138.15;;;51.55;;
22778;SDS011;11556;51.194;3.800;2024-03-07T04:46:20;136.15;;;49.95;;
22778;SDS011;11556;51.194;3.800;2024-03-07T04:48:45;138.35;;;52.25;;
22778;SDS011;11556;51.194;3.800;2024-03-07T04:51:11;139.45;;;51.47;;
22778;SDS011;11556;51.194;3.800;2024-03-07T04:53:36;145.73;;;53.42;;
22778;SDS011;11556;51.194;3.800;2024-03-07T04:56:07;145.65;;;50.30;;
22778;SDS011;11556;51.194;3.800;2024-03-07T04:58:34;153.60;;;54.40;;
22778;SDS011;11556;51.194;3.800;2024-03-07T05:01:00;156.00;;;54.53;;
22778;SDS011;11556;51.194;3.800;2024-03-07T05:03:27;155.27;;;54.22;;
22778;SDS011;11556;51.194;3.800;2024-03-07T05:05:53;148.35;;;52.33;;
22778;SDS011;11556;51.194;3.800;2024-03-07T05:08:18;146.93;;;54.55;;
22778;SDS011;11556;51.194;3.800;2024-03-07T05:10:44;158.57;;;57.53;;
22778;SDS011;11556;51.194;3.800;2024-03-07T05:13:10;158.60;;;56.83;;
22778;SDS011;11556;51.194;3.800;2024-03-07T05:15:35;160.98;;;56.72;;
22778;SDS011;11556;51.194;3.800;2024-03-07T05:18:01;161.00;;;56.80;;
22778;SDS011;11556;51.194;3.800;2024-03-07T05:20:27;169.95;;;57.42;;
22778;SDS011;11556;51.194;3.800;2024-03-07T05:22:53;159.45;;;58.13;;
22778;SDS011;11556;51.194;3.800;2024-03-07T05:25:19;162.02;;;57.20;;
22778;SDS011;11556;51.194;3.800;2024-03-07T05:27:46;164.88;;;57.42;;
22778;SDS011;11556;51.194;3.800;2024-03-07T05:30:15;160.13;;;56.75;;
22778;SDS011;11556;51.194;3.800;2024-03-07T05:32:40;160.93;;;58.47;;
22778;SDS011;11556;51.194;3.800;2024-03-07T05:35:06;157.82;;;56.67;;
22778;SDS011;11556;51.194;3.800;2024-03-07T05:37:32;163.85;;;57.70;;
22778;SDS011;11556;51.194;3.800;2024-03-07T05:39:58;165.20;;;57.63;;
22778;SDS011;11556;51.194;3.800;2024-03-07T05:42:24;163.18;;;58.20;;
22778;SDS011;11556;51.194;3.800;2024-03-07T05:44:51;165.05;;;58.22;;
22778;SDS011;11556;51.194;3.800;2024-03-07T05:47:19;168.93;;;58.25;;
22778;SDS011;11556;51.194;3.800;2024-03-07T05:49:44;167.15;;;58.80;;
22778;SDS011;11556;51.194;3.800;2024-03-07T05:52:10;162.60;;;58.35;;
22778;SDS011;11556;51.194;3.800;2024-03-07T05:54:36;164.35;;;58.45;;
22778;SDS011;11556;51.194;3.800;2024-03-07T05:57:01;165.23;;;58.67;;
22778;SDS011;11556;51.194;3.800;2024-03-07T05:59:27;177.52;;;58.85;;
22778;SDS011;11556;51.194;3.800;2024-03-07T06:01:56;175.45;;;59.55;;
22778;SDS011;11556;51.194;3.800;2024-03-07T06:04:22;168.07;;;56.17;;
22778;SDS011;11556;51.194;3.800;2024-03-07T06:06:48;170.27;;;58.22;;
22778;SDS011;11556;51.194;3.800;2024-03-07T06:09:14;166.90;;;56.53;;
22778;SDS011;11556;51.194;3.800;2024-03-07T06:11:40;174.23;;;59.28;;
22778;SDS011;11556;51.194;3.800;2024-03-07T06:14:09;162.70;;;58.28;;
22778;SDS011;11556;51.194;3.800;2024-03-07T06:16:37;170.65;;;58.05;;
22778;SDS011;11556;51.194;3.800;2024-03-07T06:19:03;170.13;;;60.28;;
22778;SDS011;11556;51.194;3.800;2024-03-07T06:21:33;168.02;;;60.17;;
22778;SDS011;11556;51.194;3.800;2024-03-07T06:24:02;173.05;;;58.38;;
22778;SDS011;11556;51.194;3.800;2024-03-07T06:26:32;181.27;;;59.40;;
22778;SDS011;11556;51.194;3.800;2024-03-07T06:29:37;171.20;;;60.15;;
22778;SDS011;11556;51.194;3.800;2024-03-07T06:32:02;183.93;;;61.90;;
22778;SDS011;11556;51.194;3.800;2024-03-07T06:34:28;182.38;;;61.58;;
22778;SDS011;11556;51.194;3.800;2024-03-07T06:36:55;170.93;;;58.60;;
22778;SDS011;11556;51.194;3.800;2024-03-07T06:39:21;173.15;;;59.45;;
22778;SDS011;11556;51.194;3.800;2024-03-07T06:41:47;177.65;;;61.03;;
22778;SDS011;11556;51.194;3.800;2024-03-07T06:44:12;176.50;;;60.30;;
22778;SDS011;11556;51.194;3.800;2024-03-07T06:46:38;180.32;;;60.45;;
22778;SDS011;11556;51.194;3.800;2024-03-07T06:49:03;186.38;;;60.80;;
22778;SDS011;11556;51.194;3.800;2024-03-07T06:51:35;188.48;;;60.90;;
22778;SDS011;11556;51.194;3.800;2024-03-07T06:54:00;183.73;;;61.75;;
22778;SDS011;11556;51.194;3.800;2024-03-07T06:56:26;175.65;;;62.15;;
22778;SDS011;11556;51.194;3.800;2024-03-07T06:58:52;183.00;;;61.50;;
22778;SDS011;11556;51.194;3.800;2024-03-07T07:01:17;188.25;;;62.72;;
22778;SDS011;11556;51.194;3.800;2024-03-07T07:03:44;179.75;;;62.33;;
22778;SDS011;11556;51.194;3.800;2024-03-07T07:06:10;181.82;;;62.72;;
22778;SDS011;11556;51.194;3.800;2024-03-07T07:08:36;185.60;;;62.58;;
22778;SDS011;11556;51.194;3.800;2024-03-07T07:11:02;188.70;;;64.57;;
22778;SDS011;11556;51.194;3.800;2024-03-07T07:13:29;206.68;;;67.70;;
22778;SDS011;11556;51.194;3.800;2024-03-07T07:15:55;202.75;;;69.28;;
22778;SDS011;11556;51.194;3.800;2024-03-07T07:18:20;203.65;;;69.13;;
22778;SDS011;11556;51.194;3.800;2024-03-07T07:20:48;201.85;;;69.88;;
22778;SDS011;11556;51.194;3.800;2024-03-07T07:23:16;210.20;;;73.55;;
22778;SDS011;11556;51.194;3.800;2024-03-07T07:25:42;216.00;;;72.65;;
22778;SDS011;11556;51.194;3.800;2024-03-07T07:28:08;209.88;;;70.97;;
22778;SDS011;11556;51.194;3.800;2024-03-07T07:30:36;217.18;;;71.63;;
22778;SDS011;11556;51.194;3.800;2024-03-07T07:33:02;216.70;;;71.85;;
22778;SDS011;11556;51.194;3.800;2024-03-07T07:35:28;199.82;;;70.88;;
22778;SDS011;11556;51.194;3.800;2024-03-07T07:37:53;201.95;;;67.18;;
22778;SDS011;11556;51.194;3.800;2024-03-07T07:40:21;191.07;;;67.00;;
22778;SDS011;11556;51.194;3.800;2024-03-07T07:42:51;185.30;;;65.47;;
22778;SDS011;11556;51.194;3.800;2024-03-07T07:45:18;194.45;;;68.93;;
22778;SDS011;11556;51.194;3.800;2024-03-07T07:47:46;186.32;;;64.88;;
22778;SDS011;11556;51.194;3.800;2024-03-07T07:50:16;194.00;;;66.88;;
22778;SDS011;11556;51.194;3.800;2024-03-07T07:55:11;226.98;;;68.35;;
22778;SDS011;11556;51.194;3.800;2024-03-07T07:57:42;230.85;;;70.78;;
22778;SDS011;11556;51.194;3.800;2024-03-07T08:00:15;229.55;;;67.18;;
22778;SDS011;11556;51.194;3.800;2024-03-07T08:02:53;222.98;;;70.45;;
22778;SDS011;11556;51.194;3.800;2024-03-07T08:05:27;237.52;;;72.05;;
22778;SDS011;11556;51.194;3.800;2024-03-07T08:07:57;213.50;;;64.22;;
22778;SDS011;11556;51.194;3.800;2024-03-07T08:10:25;230.85;;;66.60;;
22778;SDS011;11556;51.194;3.800;2024-03-07T08:12:55;237.98;;;71.22;;
22778;SDS011;11556;51.194;3.800;2024-03-07T08:15:22;236.23;;;71.47;;
22778;SDS011;11556;51.194;3.800;2024-03-07T08:17:48;229.82;;;70.57;;
22778;SDS011;11556;51.194;3.800;2024-03-07T08:20:16;234.65;;;69.60;;
22778;SDS011;11556;51.194;3.800;2024-03-07T08:22:46;225.25;;;67.75;;
22778;SDS011;11556;51.194;3.800;2024-03-07T08:25:13;221.18;;;66.55;;
22778;SDS011;11556;51.194;3.800;2024-03-07T08:27:40;220.88;;;69.35;;
22778;SDS011;11556;51.194;3.800;2024-03-07T08:30:07;235.13;;;71.13;;
22778;SDS011;11556;51.194;3.800;2024-03-07T08:32:46;221.77;;;72.43;;
22778;SDS011;11556;51.194;3.800;2024-03-07T08:35:13;226.05;;;69.85;;
22778;SDS011;11556;51.194;3.800;2024-03-07T08:37:44;209.48;;;70.20;;
22778;SDS011;11556;51.194;3.800;2024-03-07T08:40:11;217.68;;;69.13;;
22778;SDS011;11556;51.194;3.800;2024-03-07T08:42:46;202.88;;;67.65;;
22778;SDS011;11556;51.194;3.800;2024-03-07T08:45:15;197.50;;;67.95;;
22778;SDS011;11556;51.194;3.800;2024-03-07T08:47:44;194.98;;;68.75;;
22778;SDS011;11556;51.194;3.800;2024-03-07T08:50:11;184.23;;;66.53;;
22778;SDS011;11556;51.194;3.800;2024-03-07T08:52:38;185.98;;;67.45;;
22778;SDS011;11556;51.194;3.800;2024-03-07T08:55:14;194.68;;;67.13;;
22778;SDS011;11556;51.194;3.800;2024-03-07T08:57:41;175.10;;;65.07;;
22778;SDS011;11556;51.194;3.800;2024-03-07T09:00:10;168.77;;;63.70;;
22778;SDS011;11556;51.194;3.800;2024-03-07T09:02:41;156.63;;;59.78;;
22778;SDS011;11556;51.194;3.800;2024-03-07T09:05:07;144.13;;;61.08;;
22778;SDS011;11556;51.194;3.800;2024-03-07T09:07:35;131.13;;;55.72;;
22778;SDS011;11556;51.194;3.800;2024-03-07T09:10:01;133.43;;;55.33;;
22778;SDS011;11556;51.194;3.800;2024-03-07T09:12:26;121.70;;;51.00;;
22778;SDS011;11556;51.194;3.800;2024-03-07T09:14:52;129.25;;;56.13;;
22778;SDS011;11556;51.194;3.800;2024-03-07T09:17:18;118.25;;;51.67;;
22778;SDS011;11556;51.194;3.800;2024-03-07T09:19:44;117.20;;;50.88;;
22778;SDS011;11556;51.194;3.800;2024-03-07T09:22:10;114.18;;;49.83;;
22778;SDS011;11556;51.194;3.800;2024-03-07T09:24:36;115.50;;;48.40;;
22778;SDS011;11556;51.194;3.800;2024-03-07T09:27:02;111.38;;;50.47;;
22778;SDS011;11556;51.194;3.800;2024-03-07T09:29:28;99.65;;;46.85;;
22778;SDS011;11556;51.194;3.800;2024-03-07T09:31:54;99.60;;;46.95;;
22778;SDS011;11556;51.194;3.800;2024-03-07T09:34:20;100.15;;;46.45;;
22778;SDS011;11556;51.194;3.800;2024-03-07T09:36:46;97.65;;;44.70;;
22778;SDS011;11556;51.194;3.800;2024-03-07T09:39:13;81.05;;;41.13;;
22778;SDS011;11556;51.194;3.800;2024-03-07T09:41:40;80.47;;;39.33;;
22778;SDS011;11556;51.194;3.800;2024-03-07T09:44:06;79.93;;;39.78;;
22778;SDS011;11556;51.194;3.800;2024-03-07T09:46:47;74.90;;;35.97;;
22778;SDS011;11556;51.194;3.800;2024-03-07T09:49:14;79.97;;;41.38;;
22778;SDS011;11556;51.194;3.800;2024-03-07T09:51:40;71.55;;;35.33;;
22778;SDS011;11556;51.194;3.800;2024-03-07T09:54:08;62.22;;;32.67;;
22778;SDS011;11556;51.194;3.800;2024-03-07T09:56:35;68.97;;;34.60;;
22778;SDS011;11556;51.194;3.800;2024-03-07T09:59:03;69.60;;;34.72;;
22778;SDS011;11556;51.194;3.800;2024-03-07T10:01:30;70.32;;;34.90;;
22778;SDS011;11556;51.194;3.800;2024-03-07T10:04:01;61.63;;;32.20;;
22778;SDS011;11556;51.194;3.800;2024-03-07T10:06:36;62.47;;;33.58;;
22778;SDS011;11556;51.194;3.800;2024-03-07T10:09:08;56.25;;;31.35;;
22778;SDS011;11556;51.194;3.800;2024-03-07T10:11:38;56.60;;;30.17;;
22778;SDS011;11556;51.194;3.800;2024-03-07T10:14:07;55.10;;;30.42;;
22778;SDS011;11556;51.194;3.800;2024-03-07T10:16:34;53.92;;;31.27;;
22778;SDS011;11556;51.194;3.800;2024-03-07T10:18:59;50.58;;;30.10;;
22778;SDS011;11556;51.194;3.800;2024-03-07T10:21:29;48.70;;;29.30;;
22778;SDS011;11556;51.194;3.800;2024-03-07T10:24:04;49.30;;;28.70;;
22778;SDS011;11556;51.194;3.800;2024-03-07T10:26:39;51.88;;;27.15;;
22778;SDS011;11556;51.194;3.800;2024-03-07T10:31:33;45.97;;;26.65;;
22778;SDS011;11556;51.194;3.800;2024-03-07T10:34:00;49.13;;;26.95;;
22778;SDS011;11556;51.194;3.800;2024-03-07T10:36:27;46.45;;;26.33;;
22778;SDS011;11556;51.194;3.800;2024-03-07T10:38:56;52.35;;;30.10;;
22778;SDS011;11556;51.194;3.800;2024-03-07T10:41:27;50.17;;;27.45;;
22778;SDS011;11556;51.194;3.800;2024-03-07T10:43:55;47.13;;;27.52;;
22778;SDS011;11556;51.194;3.800;2024-03-07T10:46:25;45.20;;;26.83;;
22778;SDS011;11556;51.194;3.800;2024-03-07T10:48:54;44.60;;;25.52;;
22778;SDS011;11556;51.194;3.800;2024-03-07T10:51:33;44.72;;;25.63;;
22778;SDS011;11556;51.194;3.800;2024-03-07T10:59:38;40.42;;;22.92;;
22778;SDS011;11556;51.194;3.800;2024-03-07T11:05:02;44.85;;;24.73;;
22778;SDS011;11556;51.194;3.800;2024-03-07T11:07:37;41.63;;;22.83;;
22778;SDS011;11556;51.194;3.800;2024-03-07T11:10:03;38.30;;;23.98;;
22778;SDS011;11556;51.194;3.800;2024-03-07T11:12:36;40.55;;;23.67;;
22778;SDS011;11556;51.194;3.800;2024-03-07T11:15:06;40.35;;;23.35;;
22778;SDS011;11556;51.194;3.800;2024-03-07T11:17:40;38.60;;;21.63;;
22778;SDS011;11556;51.194;3.800;2024-03-07T11:20:24;37.95;;;22.38;;
22778;SDS011;11556;51.194;3.800;2024-03-07T11:22:51;38.15;;;23.67;;
22778;SDS011;11556;51.194;3.800;2024-03-07T11:25:20;42.40;;;23.17;;
22778;SDS011;11556;51.194;3.800;2024-03-07T11:28:08;40.30;;;23.88;;
22778;SDS011;11556;51.194;3.800;2024-03-07T11:30:33;37.22;;;23.25;;
22778;SDS011;11556;51.194;3.800;2024-03-07T11:33:01;37.72;;;22.73;;
22778;SDS011;11556;51.194;3.800;2024-03-07T11:35:32;43.65;;;24.20;;
22778;SDS011;11556;51.194;3.800;2024-03-07T11:38:00;38.80;;;23.90;;
22778;SDS011;11556;51.194;3.800;2024-03-07T11:42:55;41.53;;;26.17;;
22778;SDS011;11556;51.194;3.800;2024-03-07T11:45:25;41.90;;;26.33;;
22778;SDS011;11556;51.194;3.800;2024-03-07T11:47:51;40.22;;;24.30;;
22778;SDS011;11556;51.194;3.800;2024-03-07T11:50:47;39.45;;;22.75;;
22778;SDS011;11556;51.194;3.800;2024-03-07T11:53:14;39.58;;;22.67;;
22778;SDS011;11556;51.194;3.800;2024-03-07T11:55:40;45.97;;;24.00;;
22778;SDS011;11556;51.194;3.800;2024-03-07T11:58:13;38.45;;;23.08;;
22778;SDS011;11556;51.194;3.800;2024-03-07T12:00:43;37.00;;;23.60;;
22778;SDS011;11556;51.194;3.800;2024-03-07T12:03:12;35.40;;;23.38;;
22778;SDS011;11556;51.194;3.800;2024-03-07T12:05:40;36.25;;;22.63;;
22778;SDS011;11556;51.194;3.800;2024-03-07T12:08:06;40.72;;;22.75;;
22778;SDS011;11556;51.194;3.800;2024-03-07T12:10:34;42.30;;;22.60;;
22778;SDS011;11556;51.194;3.800;2024-03-07T12:13:01;34.95;;;22.85;;
22778;SDS011;11556;51.194;3.800;2024-03-07T12:15:28;33.47;;;22.08;;
22778;SDS011;11556;51.194;3.800;2024-03-07T12:17:57;34.47;;;22.00;;
22778;SDS011;11556;51.194;3.800;2024-03-07T12:20:22;32.55;;;21.42;;
22778;SDS011;11556;51.194;3.800;2024-03-07T12:23:07;33.60;;;22.05;;
22778;SDS011;11556;51.194;3.800;2024-03-07T12:25:40;36.10;;;22.10;;
22778;SDS011;11556;51.194;3.800;2024-03-07T12:28:08;33.60;;;21.80;;
22778;SDS011;11556;51.194;3.800;2024-03-07T12:33:16;36.08;;;22.40;;
22778;SDS011;11556;51.194;3.800;2024-03-07T12:35:43;33.03;;;21.85;;
22778;SDS011;11556;51.194;3.800;2024-03-07T12:38:11;34.40;;;22.48;;
22778;SDS011;11556;51.194;3.800;2024-03-07T12:40:40;30.70;;;20.88;;
22778;SDS011;11556;51.194;3.800;2024-03-07T12:45:50;35.75;;;21.38;;
22778;SDS011;11556;51.194;3.800;2024-03-07T12:48:17;33.60;;;21.15;;
22778;SDS011;11556;51.194;3.800;2024-03-07T12:50:46;30.70;;;19.88;;
22778;SDS011;11556;51.194;3.800;2024-03-07T12:53:15;33.53;;;21.40;;
22778;SDS011;11556;51.194;3.800;2024-03-07T12:55:43;30.85;;;21.27;;
22778;SDS011;11556;51.194;3.800;2024-03-07T12:58:11;34.15;;;21.77;;
22778;SDS011;11556;51.194;3.800;2024-03-07T13:00:38;30.70;;;20.85;;
22778;SDS011;11556;51.194;3.800;2024-03-07T13:03:06;32.25;;;19.65;;
22778;SDS011;11556;51.194;3.800;2024-03-07T13:05:34;31.30;;;22.40;;
22778;SDS011;11556;51.194;3.800;2024-03-07T13:08:05;33.47;;;21.13;;
22778;SDS011;11556;51.194;3.800;2024-03-07T13:10:31;33.80;;;21.85;;
22778;SDS011;11556;51.194;3.800;2024-03-07T13:12:56;35.17;;;22.02;;
22778;SDS011;11556;51.194;3.800;2024-03-07T13:15:22;36.40;;;22.27;;
22778;SDS011;11556;51.194;3.800;2024-03-07T13:17:49;34.05;;;21.67;;
22778;SDS011;11556;51.194;3.800;2024-03-07T13:20:18;34.58;;;22.83;;
22778;SDS011;11556;51.194;3.800;2024-03-07T13:22:46;34.85;;;21.00;;
22778;SDS011;11556;51.194;3.800;2024-03-07T13:25:13;34.67;;;22.05;;
22778;SDS011;11556;51.194;3.800;2024-03-07T13:27:57;36.60;;;22.25;;
22778;SDS011;11556;51.194;3.800;2024-03-07T13:30:32;36.33;;;22.38;;
22778;SDS011;11556;51.194;3.800;2024-03-07T13:33:01;34.53;;;22.15;;
22778;SDS011;11556;51.194;3.800;2024-03-07T13:35:28;36.25;;;22.60;;
22778;SDS011;11556;51.194;3.800;2024-03-07T13:37:54;38.47;;;23.00;;
22778;SDS011;11556;51.194;3.800;2024-03-07T13:40:21;37.42;;;23.67;;
22778;SDS011;11556;51.194;3.800;2024-03-07T13:42:49;40.60;;;25.17;;
22778;SDS011;11556;51.194;3.800;2024-03-07T13:45:17;33.03;;;23.83;;
22778;SDS011;11556;51.194;3.800;2024-03-07T13:47:44;35.63;;;23.52;;
22778;SDS011;11556;51.194;3.800;2024-03-07T13:50:09;38.92;;;25.05;;
22778;SDS011;11556;51.194;3.800;2024-03-07T13:52:37;37.15;;;25.52;;
22778;SDS011;11556;51.194;3.800;2024-03-07T13:55:09;40.67;;;27.63;;
22778;SDS011;11556;51.194;3.800;2024-03-07T13:57:46;40.75;;;27.80;;
22778;SDS011;11556;51.194;3.800;2024-03-07T14:05:53;42.90;;;27.38;;
22778;SDS011;11556;51.194;3.800;2024-03-07T14:23:10;40.03;;;27.45;;
22778;SDS011;11556;51.194;3.800;2024-03-07T14:31:38;45.88;;;27.13;;
22778;SDS011;11556;51.194;3.800;2024-03-07T14:34:10;41.20;;;27.35;;
22778;SDS011;11556;51.194;3.800;2024-03-07T14:36:46;42.80;;;29.23;;
22778;SDS011;11556;51.194;3.800;2024-03-07T14:39:17;47.70;;;28.40;;
22778;SDS011;11556;51.194;3.800;2024-03-07T14:44:14;47.47;;;28.55;;
22778;SDS011;11556;51.194;3.800;2024-03-07T14:46:44;50.50;;;30.73;;
22778;SDS011;11556;51.194;3.800;2024-03-07T14:49:14;44.47;;;28.55;;
22778;SDS011;11556;51.194;3.800;2024-03-07T14:51:42;43.60;;;28.48;;
22778;SDS011;11556;51.194;3.800;2024-03-07T14:54:09;43.97;;;28.08;;
22778;SDS011;11556;51.194;3.800;2024-03-07T14:56:35;42.08;;;28.58;;
22778;SDS011;11556;51.194;3.800;2024-03-07T14:59:01;41.70;;;27.52;;
22778;SDS011;11556;51.194;3.800;2024-03-07T15:01:29;41.63;;;27.63;;
22778;SDS011;11556;51.194;3.800;2024-03-07T15:03:56;42.35;;;28.13;;
22778;SDS011;11556;51.194;3.800;2024-03-07T15:06:23;43.97;;;26.33;;
22778;SDS011;11556;51.194;3.800;2024-03-07T15:08:48;40.70;;;26.02;;